createdAt,value
2019-04-25T00:01:09.087Z,91.40
2019-04-25T00:03:40.419Z,91.30
2019-04-25T00:06:12.164Z,91.50
2019-04-25T00:08:43.076Z,91.10
2019-04-25T00:11:13.244Z,91.20
2019-04-25T00:13:43.116Z,91.00
2019-04-25T00:16:15.391Z,91.50
2019-04-25T00:18:45.012Z,91.30
2019-04-25T00:21:27.469Z,91.40
2019-04-25T00:24:02.664Z,91.70
2019-04-25T00:26:40.192Z,91.60
2019-04-25T00:29:10.597Z,91.80
2019-04-25T00:31:40.993Z,91.60
2019-04-25T00:34:12.077Z,92.00
2019-04-25T00:36:43.465Z,92.10
2019-04-25T00:39:14.666Z,92.20
2019-04-25T00:41:46.150Z,92.10
2019-04-25T00:44:15.640Z,92.20
2019-04-25T00:46:48.759Z,92.40
2019-04-25T00:49:16.424Z,92.60
2019-04-25T00:51:46.242Z,92.60
2019-04-25T00:54:16.156Z,92.70
2019-04-25T00:56:47.909Z,93.10
2019-04-25T00:59:31.943Z,93.20
2019-04-25T01:02:26.204Z,93.10
2019-04-25T01:04:56.164Z,93.40
2019-04-25T01:07:25.738Z,93.30
2019-04-25T01:09:55.592Z,93.60
2019-04-25T01:12:25.158Z,93.70
2019-04-25T01:14:54.784Z,94.00
2019-04-25T01:17:24.615Z,93.60
2019-04-25T01:19:56.941Z,93.90
2019-04-25T01:22:25.611Z,93.90
2019-04-25T01:24:56.006Z,94.50
2019-04-25T01:27:25.882Z,94.70
2019-04-25T01:29:56.349Z,94.70
2019-04-25T01:32:37.734Z,94.80
2019-04-25T01:35:20.944Z,94.80
2019-04-25T01:37:57.439Z,95.10
2019-04-25T01:40:44.642Z,94.90
2019-04-25T01:43:35.336Z,94.90
2019-04-25T01:46:04.880Z,94.70
2019-04-25T01:48:34.637Z,94.40
2019-04-25T01:51:04.494Z,94.80
2019-04-25T01:53:35.604Z,94.90
2019-04-25T01:56:07.571Z,94.40
2019-04-25T01:58:36.644Z,94.60
2019-04-25T02:01:06.223Z,94.90
2019-04-25T02:03:35.968Z,95.00
2019-04-25T02:06:05.776Z,95.10
2019-04-25T02:08:35.375Z,95.10
2019-04-25T02:11:34.004Z,95.30
2019-04-25T02:14:05.213Z,95.40
2019-04-25T02:16:35.434Z,95.50
2019-04-25T02:19:05.940Z,95.90
2019-04-25T02:21:35.632Z,95.60
2019-04-25T02:24:05.682Z,95.60
2019-04-25T02:26:35.612Z,95.50
2019-04-25T02:29:05.280Z,95.60
2019-04-25T02:31:35.095Z,95.80
2019-04-25T02:34:08.391Z,96.00
2019-04-25T02:36:35.918Z,96.50
2019-04-25T02:39:11.267Z,96.70
2019-04-25T02:41:40.839Z,96.90
2019-04-25T02:44:10.504Z,97.20
2019-04-25T02:47:00.699Z,96.40
2019-04-25T02:49:47.604Z,96.40
2019-04-25T02:52:36.104Z,96.30
2019-04-25T02:55:10.532Z,96.60
2019-04-25T02:57:37.743Z,96.60
2019-04-25T03:00:08.832Z,96.70
2019-04-25T03:02:38.620Z,96.60
2019-04-25T03:05:09.935Z,96.70
2019-04-25T03:07:39.840Z,96.60
2019-04-25T03:10:11.698Z,96.70
2019-04-25T03:12:41.327Z,96.70
2019-04-25T03:15:11.014Z,96.80
2019-04-25T03:17:40.649Z,97.00
2019-04-25T03:20:41.195Z,97.10
2019-04-25T03:23:46.289Z,97.30
2019-04-25T03:26:15.924Z,97.60
2019-04-25T03:28:45.479Z,97.70
2019-04-25T03:31:21.883Z,97.80
2019-04-25T03:33:46.486Z,97.70
2019-04-25T03:36:17.000Z,97.60
2019-04-25T03:38:46.984Z,97.50
2019-04-25T03:41:16.544Z,97.50
2019-04-25T03:43:46.351Z,97.50
2019-04-25T03:46:15.940Z,97.50
2019-04-25T03:48:45.496Z,97.40
2019-04-25T03:51:15.663Z,97.80
2019-04-25T03:53:45.537Z,97.90
2019-04-25T03:56:15.104Z,98.00
2019-04-25T03:58:44.658Z,97.50
2019-04-25T04:01:15.630Z,97.50
2019-04-25T04:03:45.398Z,98.10
2019-04-25T04:06:15.670Z,97.70
2019-04-25T04:08:45.303Z,98.20
2019-04-25T04:11:15.687Z,98.30
2019-04-25T04:13:45.475Z,98.10
2019-04-25T04:16:17.484Z,98.20
2019-04-25T04:18:49.049Z,98.30
2019-04-25T04:21:36.043Z,98.60
2019-04-25T04:24:39.754Z,98.70
2019-04-25T04:27:12.112Z,98.90
2019-04-25T04:29:43.127Z,99.00
2019-04-25T04:32:14.398Z,99.10
2019-04-25T04:34:45.570Z,99.10
2019-04-25T04:37:16.214Z,98.40
2019-04-25T04:39:45.956Z,98.50
2019-04-25T04:42:16.087Z,98.40
2019-04-25T04:44:45.947Z,98.70
2019-04-25T04:47:16.610Z,98.80
2019-04-25T04:49:46.563Z,98.80
2019-04-25T04:52:16.954Z,99.10
2019-04-25T04:54:46.738Z,99.10
2019-04-25T04:57:26.313Z,99.20
2019-04-25T04:59:47.501Z,99.40
2019-04-25T05:02:35.979Z,99.40
2019-04-25T05:05:23.475Z,99.30
2019-04-25T05:08:00.732Z,99.50
2019-04-25T05:10:30.301Z,99.80
2019-04-25T05:13:00.001Z,99.60
2019-04-25T05:15:29.647Z,99.30
2019-04-25T05:18:32.944Z,99.40
2019-04-25T05:20:48.161Z,99.50
2019-04-25T05:23:17.714Z,99.30
2019-04-25T05:25:47.301Z,99.20
2019-04-25T05:28:18.207Z,99.10
2019-04-25T05:31:10.068Z,99.00
2019-04-25T05:33:39.639Z,99.00
2019-04-25T05:36:09.188Z,99.00
2019-04-25T05:38:38.760Z,98.90
2019-04-25T05:41:16.124Z,98.70
2019-04-25T05:43:46.720Z,98.50
2019-04-25T05:46:16.885Z,98.40
2019-04-25T05:48:46.755Z,98.30
2019-04-25T05:51:17.324Z,98.40
2019-04-25T05:53:47.230Z,98.30
2019-04-25T05:56:16.943Z,98.20
2019-04-25T05:58:46.861Z,98.50
2019-04-25T06:01:17.199Z,98.70
2019-04-25T06:03:47.216Z,97.90
2019-04-25T06:06:17.572Z,97.50
2019-04-25T06:08:54.217Z,97.30
2019-04-25T06:11:48.881Z,97.40
2019-04-25T06:14:19.941Z,97.00
2019-04-25T06:16:50.639Z,97.40
2019-04-25T06:19:44.932Z,96.70
2019-04-25T06:22:19.949Z,96.70
2019-04-25T06:24:59.088Z,96.70
2019-04-25T06:27:38.830Z,96.90
2019-04-25T06:30:20.497Z,96.70
2019-04-25T06:32:50.296Z,96.70
2019-04-25T06:35:20.327Z,96.60
2019-04-25T06:37:51.007Z,96.50
2019-04-25T06:40:22.053Z,96.40
2019-04-25T06:42:53.557Z,96.20
2019-04-25T06:45:54.054Z,96.10
2019-04-25T06:48:33.246Z,95.90
2019-04-25T06:51:03.510Z,95.90
2019-04-25T06:53:34.603Z,95.60
2019-04-25T06:56:04.795Z,95.60
2019-04-25T06:58:34.995Z,95.70
2019-04-25T07:01:04.541Z,95.50
2019-04-25T07:03:35.630Z,95.00
2019-04-25T07:06:05.761Z,95.00
2019-04-25T07:08:35.527Z,95.00
2019-04-25T07:11:05.515Z,94.70
2019-04-25T07:13:38.552Z,94.80
2019-04-25T07:16:06.364Z,94.70
2019-04-25T07:18:37.337Z,94.10
2019-04-25T07:21:07.151Z,94.00
2019-04-25T07:23:36.735Z,93.70
2019-04-25T07:26:13.552Z,93.70
2019-04-25T07:29:01.333Z,93.70
2019-04-25T07:31:38.766Z,93.20
2019-04-25T07:34:19.876Z,92.80
2019-04-25T07:36:49.414Z,92.40
2019-04-25T07:39:18.984Z,92.30
2019-04-25T07:41:48.537Z,92.30
2019-04-25T07:44:20.751Z,92.00
2019-04-25T07:46:49.275Z,91.90
2019-04-25T07:49:18.863Z,91.70
2019-04-25T07:51:48.411Z,91.80
2019-04-25T07:54:17.952Z,91.80
2019-04-25T07:56:47.563Z,91.20
2019-04-25T07:59:17.200Z,90.50
2019-04-25T08:01:46.747Z,90.50
2019-04-25T08:04:16.333Z,90.30
2019-04-25T08:06:45.883Z,90.50
2019-04-25T08:09:15.764Z,90.50
2019-04-25T08:11:45.503Z,90.80
2019-04-25T08:14:35.057Z,90.30
2019-04-25T08:17:05.676Z,90.20
2019-04-25T08:19:35.637Z,89.40
2019-04-25T08:22:05.775Z,88.70
2019-04-25T08:24:37.304Z,88.00
2019-04-25T08:27:07.121Z,87.90
2019-04-25T08:29:39.218Z,88.30
2019-04-25T08:32:08.078Z,88.50
2019-04-25T08:34:38.545Z,87.80
2019-04-25T08:37:18.111Z,88.30
2019-04-25T08:39:39.853Z,86.90
2019-04-25T08:42:09.383Z,86.70
2019-04-25T08:44:39.246Z,86.70
2019-04-25T08:47:08.899Z,85.30
2019-04-25T08:49:53.837Z,85.70
2019-04-25T08:52:24.927Z,85.40
2019-04-25T08:55:04.200Z,83.70
2019-04-25T08:57:51.187Z,83.30
2019-04-25T09:01:00.920Z,82.00
2019-04-25T09:03:34.645Z,82.50
2019-04-25T09:06:04.490Z,81.50
2019-04-25T09:08:35.990Z,80.10
2019-04-25T09:11:05.254Z,78.80
2019-04-25T09:13:35.824Z,76.40
2019-04-25T09:16:06.299Z,73.30
2019-04-25T09:18:36.987Z,73.00
2019-04-25T09:21:06.611Z,71.50
2019-04-25T09:23:36.513Z,71.70
2019-04-25T09:26:07.379Z,71.90
2019-04-25T09:28:38.952Z,71.00
2019-04-25T09:31:08.280Z,69.30
2019-04-25T09:33:37.812Z,66.90
2019-04-25T09:36:07.366Z,67.00
2019-04-25T09:38:37.020Z,66.50
2019-04-25T09:41:06.583Z,63.50
2019-04-25T09:43:36.171Z,62.60
2019-04-25T09:46:20.050Z,58.60
2019-04-25T09:49:07.395Z,56.90
2019-04-25T09:51:40.547Z,56.30
2019-04-25T09:54:27.905Z,56.90
2019-04-25T09:57:03.791Z,57.10
2019-04-25T09:59:35.240Z,57.00
2019-04-25T10:02:06.458Z,56.50
2019-04-25T10:04:36.917Z,55.60
2019-04-25T10:07:07.779Z,55.30
2019-04-25T10:09:37.439Z,55.30
2019-04-25T10:12:06.983Z,55.40
2019-04-25T10:14:59.232Z,55.50
2019-04-25T10:17:28.776Z,54.10
2019-04-25T10:19:58.319Z,53.60
2019-04-25T10:22:29.607Z,53.50
2019-04-25T10:25:00.799Z,54.00
2019-04-25T10:27:30.672Z,53.10
2019-04-25T10:30:00.331Z,53.20
2019-04-25T10:32:31.468Z,53.00
2019-04-25T10:35:01.007Z,52.80
2019-04-25T10:37:30.562Z,52.20
2019-04-25T10:40:00.195Z,52.60
2019-04-25T10:42:29.963Z,53.00
2019-04-25T10:44:59.521Z,52.40
2019-04-25T10:47:30.440Z,51.20
2019-04-25T10:50:00.026Z,50.50
2019-04-25T10:52:29.605Z,50.20
2019-04-25T10:54:59.204Z,51.60
2019-04-25T10:57:28.844Z,49.40
2019-04-25T11:00:06.151Z,49.20
2019-04-25T11:02:30.131Z,48.70
2019-04-25T11:05:08.989Z,47.60
2019-04-25T11:07:38.575Z,46.40
2019-04-25T11:10:08.673Z,46.80
2019-04-25T11:12:38.272Z,46.80
2019-04-25T11:15:08.267Z,46.40
2019-04-25T11:17:37.864Z,44.60
2019-04-25T11:20:07.988Z,45.00
2019-04-25T11:22:37.563Z,43.60
2019-04-25T11:25:07.266Z,44.10
2019-04-25T11:27:36.923Z,44.20
2019-04-25T11:30:10.824Z,45.30
2019-04-25T11:32:40.785Z,44.30
2019-04-25T11:35:13.870Z,44.30
2019-04-25T11:37:43.275Z,43.70
2019-04-25T11:40:23.567Z,44.20
2019-04-25T11:42:54.590Z,44.70
2019-04-25T11:45:24.404Z,45.20
2019-04-25T11:47:55.119Z,43.50
2019-04-25T11:50:25.363Z,42.50
2019-04-25T11:52:55.000Z,41.90
2019-04-25T11:55:24.907Z,42.40
2019-04-25T11:57:54.977Z,43.20
2019-04-25T12:00:28.215Z,41.70
2019-04-25T12:02:57.767Z,41.90
2019-04-25T12:05:27.611Z,40.50
2019-04-25T12:07:57.187Z,39.70
2019-04-25T12:10:27.696Z,40.20
2019-04-25T12:12:57.863Z,38.40
2019-04-25T12:15:27.841Z,38.90
2019-04-25T12:17:57.589Z,39.70
2019-04-25T12:20:27.434Z,40.60
2019-04-25T12:23:06.024Z,40.10
2019-04-25T12:25:28.193Z,40.50
2019-04-25T12:27:57.738Z,41.10
2019-04-25T12:30:37.157Z,41.30
2019-04-25T12:32:58.523Z,42.20
2019-04-25T12:35:28.095Z,42.20
2019-04-25T12:37:57.635Z,42.90
2019-04-25T12:40:27.187Z,42.50
2019-04-25T12:42:56.760Z,43.20
2019-04-25T12:45:34.302Z,42.90
2019-04-25T12:48:04.126Z,41.50
2019-04-25T12:50:33.904Z,40.90
2019-04-25T12:53:03.776Z,40.50
2019-04-25T12:55:34.227Z,42.20
2019-04-25T12:58:03.903Z,40.00
2019-04-25T13:00:34.236Z,40.30
2019-04-25T13:03:06.742Z,40.20
2019-04-25T13:05:35.060Z,39.40
2019-04-25T13:08:04.930Z,37.80
2019-04-25T13:10:34.991Z,37.80
2019-04-25T13:13:04.540Z,38.70
2019-04-25T13:15:34.863Z,38.00
2019-04-25T13:18:04.427Z,38.10
2019-04-25T13:20:33.970Z,37.60
2019-04-25T13:23:05.861Z,37.80
2019-04-25T13:25:35.575Z,37.70
2019-04-25T13:28:23.242Z,37.90
2019-04-25T13:31:12.982Z,38.40
2019-04-25T13:33:57.362Z,38.50
2019-04-25T13:36:27.131Z,38.00
2019-04-25T13:38:57.176Z,39.40
2019-04-25T13:41:28.807Z,37.60
2019-04-25T13:43:58.939Z,37.60
2019-04-25T13:46:29.879Z,37.90
2019-04-25T13:48:59.497Z,38.20
2019-04-25T13:51:29.036Z,37.40
2019-04-25T13:53:58.712Z,37.30
2019-04-25T13:56:28.717Z,37.20
2019-04-25T13:58:58.468Z,37.50
2019-04-25T14:01:28.026Z,37.70
2019-04-25T14:03:57.587Z,39.10
2019-04-25T14:06:28.352Z,38.60
2019-04-25T14:08:58.063Z,38.40
2019-04-25T14:11:28.002Z,38.70
2019-04-25T14:13:57.601Z,37.70
2019-04-25T14:16:37.377Z,39.30
2019-04-25T14:19:33.267Z,38.70
2019-04-25T14:22:04.412Z,38.20
2019-04-25T14:24:35.688Z,39.70
2019-04-25T14:27:05.316Z,39.00
2019-04-25T14:29:34.951Z,40.20
2019-04-25T14:32:06.300Z,41.30
2019-04-25T14:34:37.427Z,41.20
2019-04-25T14:37:07.004Z,41.40
2019-04-25T14:39:36.547Z,41.80
2019-04-25T14:42:06.083Z,41.20
2019-04-25T14:44:35.999Z,41.50
2019-04-25T14:47:05.563Z,41.40
2019-04-25T14:49:35.135Z,40.50
2019-04-25T14:52:04.711Z,40.90
2019-04-25T14:54:53.192Z,40.30
2019-04-25T14:57:29.716Z,40.80
2019-04-25T15:00:02.007Z,41.60
2019-04-25T15:02:32.210Z,41.20
2019-04-25T15:05:01.759Z,42.20
2019-04-25T15:07:31.338Z,42.90
2019-04-25T15:10:00.928Z,43.60
2019-04-25T15:12:30.477Z,43.30
2019-04-25T15:15:00.056Z,43.90
2019-04-25T15:17:29.629Z,43.90
2019-04-25T15:19:59.189Z,43.50
2019-04-25T15:22:28.735Z,43.70
2019-04-25T15:24:58.480Z,45.00
2019-04-25T15:27:28.051Z,44.30
2019-04-25T15:29:58.103Z,44.10
2019-04-25T15:32:31.031Z,43.50
2019-04-25T15:35:00.595Z,43.40
2019-04-25T15:37:41.145Z,43.70
2019-04-25T15:40:41.058Z,42.90
2019-04-25T15:43:19.933Z,43.20
2019-04-25T15:45:54.496Z,44.10
2019-04-25T15:48:25.170Z,45.10
2019-04-25T15:50:55.544Z,45.40
2019-04-25T15:53:25.255Z,47.00
2019-04-25T15:55:54.890Z,46.40
2019-04-25T15:58:25.313Z,47.00
2019-04-25T16:00:55.769Z,48.90
2019-04-25T16:03:25.627Z,47.90
2019-04-25T16:05:55.392Z,49.60
2019-04-25T16:08:24.952Z,49.40
2019-04-25T16:10:54.526Z,50.50
2019-04-25T16:13:24.095Z,49.70
2019-04-25T16:15:53.775Z,49.80
2019-04-25T16:18:23.436Z,50.10
2019-04-25T16:20:53.010Z,50.70
2019-04-25T16:23:22.604Z,51.40
2019-04-25T16:25:52.185Z,51.10
2019-04-25T16:28:21.760Z,50.80
2019-04-25T16:30:51.307Z,46.50
2019-04-25T16:33:21.084Z,45.60
2019-04-25T16:35:50.672Z,46.70
2019-04-25T16:38:22.059Z,44.80
2019-04-25T16:40:51.650Z,46.70
2019-04-25T16:43:25.203Z,45.30
2019-04-25T16:45:54.747Z,45.60
2019-04-25T16:48:24.327Z,48.00
2019-04-25T16:50:53.896Z,48.90
2019-04-25T16:53:23.464Z,49.60
2019-04-25T16:55:53.060Z,49.90
2019-04-25T16:58:23.390Z,51.60
2019-04-25T17:01:06.100Z,53.50
2019-04-25T17:03:36.143Z,52.80
2019-04-25T17:06:06.423Z,54.50
2019-04-25T17:08:37.664Z,53.50
2019-04-25T17:11:08.777Z,55.60
2019-04-25T17:13:44.124Z,54.80
2019-04-25T17:16:32.517Z,55.20
2019-04-25T17:19:05.940Z,55.30
2019-04-25T17:21:35.594Z,55.30
2019-04-25T17:24:05.749Z,55.30
2019-04-25T17:26:35.603Z,56.60
2019-04-25T17:29:08.571Z,55.80
2019-04-25T17:32:00.077Z,56.60
2019-04-25T17:34:43.342Z,57.80
2019-04-25T17:37:19.182Z,58.20
2019-04-25T17:39:51.909Z,58.60
2019-04-25T17:42:21.554Z,58.20
2019-04-25T17:44:51.210Z,58.00
2019-04-25T17:47:20.834Z,58.30
2019-04-25T17:49:50.442Z,59.20
2019-04-25T17:52:21.801Z,57.90
2019-04-25T17:54:51.506Z,59.00
2019-04-25T17:57:22.413Z,59.30
2019-04-25T17:59:52.063Z,59.00
2019-04-25T18:02:21.728Z,60.80
2019-04-25T18:04:51.288Z,60.10
2019-04-25T18:07:20.946Z,59.60
2019-04-25T18:09:50.554Z,60.30
2019-04-25T18:12:20.153Z,60.90
2019-04-25T18:14:50.801Z,60.70
2019-04-25T18:17:20.402Z,61.60
2019-04-25T18:19:58.404Z,62.90
2019-04-25T18:22:59.196Z,63.40
2019-04-25T18:25:56.929Z,63.00
2019-04-25T18:28:45.742Z,64.00
2019-04-25T18:31:15.622Z,64.00
2019-04-25T18:33:45.964Z,64.30
2019-04-25T18:36:36.086Z,65.10
2019-04-25T18:39:21.692Z,65.40
2019-04-25T18:41:59.991Z,66.30
2019-04-25T18:44:29.543Z,66.70
2019-04-25T18:46:59.083Z,66.70
2019-04-25T18:49:28.663Z,66.30
2019-04-25T18:52:02.695Z,67.90
2019-04-25T18:54:41.133Z,67.90
2019-04-25T18:57:32.334Z,68.40
2019-04-25T19:00:20.817Z,69.50
2019-04-25T19:03:05.637Z,70.20
2019-04-25T19:05:42.843Z,71.10
2019-04-25T19:08:12.425Z,69.50
2019-04-25T19:10:42.849Z,69.80
2019-04-25T19:13:13.295Z,71.80
2019-04-25T19:15:43.158Z,72.00
2019-04-25T19:18:14.423Z,73.50
2019-04-25T19:20:44.039Z,74.00
2019-04-25T19:23:13.577Z,75.70
2019-04-25T19:25:43.717Z,74.60
2019-04-25T19:28:13.426Z,75.00
2019-04-25T19:30:43.187Z,75.20
2019-04-25T19:33:12.777Z,73.60
2019-04-25T19:35:42.319Z,74.40
2019-04-25T19:38:11.934Z,75.10
2019-04-25T19:41:04.031Z,74.80
2019-04-25T19:43:55.362Z,75.00
2019-04-25T19:46:45.630Z,75.70
2019-04-25T19:49:15.221Z,75.60
2019-04-25T19:51:45.166Z,75.90
2019-04-25T19:54:15.028Z,76.20
2019-04-25T19:56:45.576Z,79.90
2019-04-25T19:59:15.120Z,78.50
2019-04-25T20:01:44.692Z,79.40
2019-04-25T20:04:45.181Z,79.90
2019-04-25T20:07:23.059Z,79.10
2019-04-25T20:10:19.734Z,81.40
2019-04-25T20:12:52.162Z,82.40
2019-04-25T20:15:22.076Z,83.00
2019-04-25T20:17:52.028Z,83.40
2019-04-25T20:20:21.639Z,83.50
2019-04-25T20:23:10.191Z,83.10
2019-04-25T20:25:39.791Z,82.20
2019-04-25T20:28:09.440Z,82.40
2019-04-25T20:30:38.995Z,81.70
2019-04-25T20:33:08.747Z,82.90
2019-04-25T20:35:57.410Z,83.40
2019-04-25T20:38:26.974Z,83.80
2019-04-25T20:40:56.600Z,83.30
2019-04-25T20:43:26.136Z,83.50
2019-04-25T20:45:56.518Z,83.90
2019-04-25T20:48:26.151Z,84.90
2019-04-25T20:50:56.564Z,84.80
2019-04-25T20:53:26.211Z,85.60
2019-04-25T20:55:55.771Z,85.90
2019-04-25T20:58:25.343Z,86.40
2019-04-25T21:00:57.939Z,85.70
2019-04-25T21:03:27.611Z,86.10
2019-04-25T21:06:05.172Z,87.10
2019-04-25T21:08:34.745Z,87.70
2019-04-25T21:11:04.807Z,87.80
2019-04-25T21:14:02.526Z,88.40
2019-04-25T21:17:09.683Z,89.30
2019-04-25T21:19:43.370Z,89.50
2019-04-25T21:22:12.935Z,88.80
2019-04-25T21:24:42.483Z,89.40
2019-04-25T21:27:12.065Z,90.30
2019-04-25T21:29:41.608Z,90.10
2019-04-25T21:32:11.159Z,89.80
2019-04-25T21:34:40.726Z,90.00
2019-04-25T21:37:10.676Z,90.30
2019-04-25T21:39:58.533Z,90.30
2019-04-25T21:42:39.451Z,89.80
2019-04-25T21:45:10.023Z,89.70
2019-04-25T21:47:39.574Z,90.10
2019-04-25T21:50:09.619Z,90.20
2019-04-25T21:52:39.311Z,90.10
2019-04-25T21:55:09.277Z,90.10
2019-04-25T21:57:39.375Z,90.30
2019-04-25T22:00:11.750Z,90.30
2019-04-25T22:02:41.637Z,90.40
2019-04-25T22:05:12.230Z,90.60
2019-04-25T22:07:42.170Z,90.80
2019-04-25T22:10:12.291Z,90.50
2019-04-25T22:12:41.934Z,90.60
2019-04-25T22:15:13.290Z,90.20
2019-04-25T22:17:43.069Z,90.40
2019-04-25T22:20:12.619Z,89.30
2019-04-25T22:22:42.456Z,89.20
2019-04-25T22:25:12.111Z,88.90
2019-04-25T22:27:41.771Z,89.00
2019-04-25T22:30:13.097Z,89.00
2019-04-25T22:32:53.796Z,89.00
2019-04-25T22:35:26.522Z,89.30
2019-04-25T22:37:56.058Z,89.20
2019-04-25T22:40:25.663Z,89.80
2019-04-25T22:42:56.143Z,89.10
2019-04-25T22:45:25.706Z,89.70
2019-04-25T22:47:57.013Z,89.20
2019-04-25T22:50:26.872Z,89.20
2019-04-25T22:52:56.477Z,89.80
2019-04-25T22:55:26.054Z,88.80
2019-04-25T22:57:55.618Z,88.10
2019-04-25T23:00:30.656Z,88.00
2019-04-25T23:03:05.606Z,87.70
2019-04-25T23:05:48.298Z,87.80
2019-04-25T23:08:18.047Z,87.50
2019-04-25T23:10:48.095Z,87.80
2019-04-25T23:13:17.675Z,88.30
2019-04-25T23:15:47.495Z,88.70
2019-04-25T23:18:17.343Z,89.20
2019-04-25T23:20:46.944Z,89.30
2019-04-25T23:23:16.596Z,89.70
2019-04-25T23:26:06.576Z,89.70
2019-04-25T23:28:39.994Z,89.60
2019-04-25T23:31:16.339Z,90.10
2019-04-25T23:33:46.044Z,90.20
2019-04-25T23:36:16.003Z,90.50
2019-04-25T23:38:45.684Z,90.40
2019-04-25T23:41:15.741Z,90.20
2019-04-25T23:43:47.061Z,90.20
2019-04-25T23:46:16.758Z,90.20
2019-04-25T23:48:46.361Z,90.30
2019-04-25T23:51:15.913Z,90.30
2019-04-25T23:53:45.806Z,91.00
2019-04-25T23:56:15.486Z,90.80
2019-04-25T23:58:45.415Z,90.70
